createdAt,value
2018-02-20T00:01:34.350Z,95064.23
2018-02-20T00:04:00.973Z,95064.08
2018-02-20T00:06:27.556Z,95065.83
2018-02-20T00:08:54.113Z,95059.81
2018-02-20T00:11:20.740Z,95052.30
2018-02-20T00:13:47.309Z,95056.45
2018-02-20T00:16:13.868Z,95052.02
2018-02-20T00:18:40.474Z,95054.98
2018-02-20T00:21:07.036Z,95050.28
2018-02-20T00:23:33.632Z,95055.25
2018-02-20T00:26:00.237Z,95052.95
2018-02-20T00:28:26.807Z,95050.28
2018-02-20T00:30:53.373Z,95052.03
2018-02-20T00:33:19.978Z,95044.88
2018-02-20T00:35:46.550Z,95035.16
2018-02-20T00:38:13.173Z,95037.13
2018-02-20T00:40:39.769Z,95030.44
2018-02-20T00:43:06.349Z,95024.13
2018-02-20T00:45:32.894Z,95033.61
2018-02-20T00:47:59.458Z,95027.05
2018-02-20T00:50:26.030Z,95031.05
2018-02-20T00:52:52.596Z,95030.05
2018-02-20T00:55:19.231Z,95030.89
2018-02-20T00:57:45.841Z,95026.70
2018-02-20T01:00:12.503Z,95017.19
2018-02-20T01:02:39.062Z,95019.97
2018-02-20T01:05:05.669Z,95017.69
2018-02-20T01:07:32.228Z,95020.25
2018-02-20T01:09:58.853Z,95017.27
2018-02-20T01:12:25.417Z,95020.52
2018-02-20T01:14:51.977Z,95019.05
2018-02-20T01:17:18.583Z,95008.56
2018-02-20T01:19:45.166Z,95005.88
2018-02-20T01:22:11.732Z,95000.83
2018-02-20T01:24:38.345Z,95007.36
2018-02-20T01:27:04.927Z,95004.80
2018-02-20T01:29:31.604Z,95007.52
2018-02-20T01:31:58.182Z,94998.80
2018-02-20T01:34:24.861Z,95006.96
2018-02-20T01:36:51.411Z,94997.33
2018-02-20T01:39:18.060Z,94998.16
2018-02-20T01:41:44.617Z,94999.21
2018-02-20T01:44:11.189Z,94996.13
2018-02-20T01:46:37.757Z,94989.55
2018-02-20T01:49:04.317Z,94992.51
2018-02-20T01:51:30.935Z,94993.73
2018-02-20T01:53:57.517Z,94981.68
2018-02-20T01:56:24.162Z,94986.75
2018-02-20T01:58:50.803Z,94977.50
2018-02-20T02:01:17.360Z,94987.05
2018-02-20T02:03:43.949Z,94970.16
2018-02-20T02:06:10.571Z,94973.64
2018-02-20T02:08:37.171Z,94976.44
2018-02-20T02:11:03.735Z,94936.62
2018-02-20T02:13:30.363Z,94975.22
2018-02-20T02:15:56.982Z,94960.55
2018-02-20T02:18:23.544Z,94973.52
2018-02-20T02:20:50.151Z,94969.29
2018-02-20T02:23:16.725Z,94956.54
2018-02-20T02:25:43.341Z,94973.22
2018-02-20T02:28:09.904Z,94970.44
2018-02-20T02:30:36.575Z,94944.47
2018-02-20T02:33:03.142Z,94961.63
2018-02-20T02:35:29.722Z,94973.66
2018-02-20T02:37:56.324Z,94968.98
2018-02-20T02:40:22.887Z,94970.58
2018-02-20T02:42:49.500Z,94976.62
2018-02-20T02:45:16.053Z,94977.82
2018-02-20T02:47:42.741Z,94972.70
2018-02-20T02:50:09.348Z,94979.41
2018-02-20T02:52:35.945Z,94971.02
2018-02-20T02:55:02.550Z,94982.77
2018-02-20T02:57:29.111Z,94975.00
2018-02-20T02:59:55.711Z,94977.00
2018-02-20T03:02:22.279Z,94975.12
2018-02-20T03:04:48.835Z,94972.42
2018-02-20T03:07:15.441Z,94971.92
2018-02-20T03:09:42.007Z,94963.87
2018-02-20T03:12:08.625Z,94970.58
2018-02-20T03:14:35.265Z,94976.58
2018-02-20T03:17:01.897Z,94967.89
2018-02-20T03:19:28.458Z,94977.55
2018-02-20T03:21:55.030Z,94973.92
2018-02-20T03:24:21.643Z,94973.52
2018-02-20T03:26:48.219Z,94970.17
2018-02-20T03:29:14.906Z,94976.58
2018-02-20T03:31:41.550Z,94977.13
2018-02-20T03:34:08.099Z,94971.36
2018-02-20T03:36:34.699Z,94965.08
2018-02-20T03:39:01.327Z,94970.00
2018-02-20T03:41:27.881Z,94966.94
2018-02-20T03:43:54.441Z,94971.63
2018-02-20T03:46:21.042Z,94966.12
2018-02-20T03:48:47.614Z,94964.38
2018-02-20T03:51:14.209Z,94963.70
2018-02-20T03:53:40.782Z,94970.68
2018-02-20T03:56:07.346Z,94965.86
2018-02-20T03:58:33.904Z,94964.50
2018-02-20T04:01:00.520Z,94960.36
2018-02-20T04:03:27.090Z,94956.08
2018-02-20T04:05:53.664Z,94958.34
2018-02-20T04:08:20.228Z,94964.90
2018-02-20T04:10:46.801Z,94967.98
2018-02-20T04:13:13.361Z,94966.48
2018-02-20T04:15:39.947Z,94967.23
2018-02-20T04:18:06.562Z,94979.83
2018-02-20T04:20:33.127Z,94973.45
2018-02-20T04:22:59.685Z,94973.95
2018-02-20T04:25:26.250Z,94973.36
2018-02-20T04:27:52.815Z,94974.70
2018-02-20T04:30:19.392Z,94972.36
2018-02-20T04:32:45.958Z,94972.88
2018-02-20T04:35:12.553Z,94963.76
2018-02-20T04:37:39.121Z,94960.17
2018-02-20T04:40:05.718Z,94957.20
2018-02-20T04:42:32.290Z,94961.48
2018-02-20T04:44:58.862Z,94947.41
2018-02-20T04:47:25.427Z,94951.03
2018-02-20T04:49:52.065Z,94953.26
2018-02-20T04:52:18.621Z,94955.39
2018-02-20T04:54:45.248Z,94962.10
2018-02-20T04:57:11.846Z,94962.89
2018-02-20T04:59:38.411Z,94961.52
2018-02-20T05:02:05.021Z,94960.03
2018-02-20T05:04:31.645Z,94957.20
2018-02-20T05:06:58.209Z,94948.25
2018-02-20T05:09:24.807Z,94958.82
2018-02-20T05:11:51.362Z,94952.38
2018-02-20T05:14:17.933Z,94957.03
2018-02-20T05:16:44.516Z,94956.22
2018-02-20T05:19:11.076Z,94955.84
2018-02-20T05:21:37.644Z,94965.20
2018-02-20T05:24:04.234Z,94965.05
2018-02-20T05:26:30.799Z,94968.81
2018-02-20T05:28:57.368Z,94970.41
2018-02-20T05:31:23.950Z,94970.14
2018-02-20T05:33:50.525Z,94958.50
2018-02-20T05:36:17.134Z,94973.28
2018-02-20T05:38:43.714Z,94981.36
2018-02-20T05:41:10.469Z,94965.32
2018-02-20T05:43:37.042Z,94984.59
2018-02-20T05:46:03.651Z,94991.13
2018-02-20T05:48:30.230Z,94990.06
2018-02-20T05:50:56.955Z,94957.30
2018-02-20T05:53:23.525Z,94995.03
2018-02-20T05:55:50.190Z,94986.01
2018-02-20T05:58:16.770Z,94982.67
2018-02-20T06:00:43.425Z,94971.44
2018-02-20T06:03:09.996Z,94966.27
2018-02-20T06:05:36.603Z,94989.38
2018-02-20T06:08:03.163Z,94976.69
2018-02-20T06:10:29.734Z,94981.11
2018-02-20T06:12:56.358Z,94993.52
2018-02-20T06:15:22.929Z,94966.27
2018-02-20T06:17:49.560Z,94976.02
2018-02-20T06:20:16.140Z,94976.81
2018-02-20T06:22:42.931Z,94979.91
2018-02-20T06:25:09.499Z,94985.88
2018-02-20T06:27:36.101Z,94964.05
2018-02-20T06:30:02.871Z,94944.44
2018-02-20T06:32:29.455Z,94960.45
2018-02-20T06:34:56.058Z,94959.00
2018-02-20T06:37:22.842Z,94975.14
2018-02-20T06:39:49.400Z,94966.98
2018-02-20T06:42:15.991Z,94962.09
2018-02-20T06:44:42.585Z,94972.08
2018-02-20T06:47:09.198Z,94966.04
2018-02-20T06:49:35.791Z,94951.98
2018-02-20T06:52:02.534Z,94950.67
2018-02-20T06:54:29.116Z,94949.42
2018-02-20T06:56:55.681Z,94970.19
2018-02-20T06:59:22.271Z,94949.59
2018-02-20T07:01:48.943Z,94926.60
2018-02-20T07:04:15.626Z,94938.64
2018-02-20T07:06:42.305Z,94974.66
2018-02-20T07:09:09.000Z,94971.49
2018-02-20T07:11:35.762Z,94967.48
2018-02-20T07:14:02.329Z,94978.18
2018-02-20T07:16:28.949Z,94981.00
2018-02-20T07:18:55.702Z,94979.92
2018-02-20T07:21:22.325Z,94966.94
2018-02-20T07:23:48.984Z,94976.86
2018-02-20T07:26:15.571Z,94948.03
2018-02-20T07:28:42.330Z,94981.45
2018-02-20T07:31:08.873Z,94985.47
2018-02-20T07:33:44.275Z,94955.78
2018-02-20T07:42:16.736Z,94966.55
2018-02-20T07:44:43.310Z,94978.29
2018-02-20T07:47:09.991Z,94952.21
2018-02-20T07:49:36.617Z,94947.60
2018-02-20T07:52:03.246Z,94979.30
2018-02-20T07:54:29.839Z,94908.47
2018-02-20T07:56:56.478Z,94953.23
2018-02-20T07:59:23.046Z,94971.66
2018-02-20T08:01:49.924Z,94958.97
2018-02-20T08:04:16.483Z,94977.56
2018-02-20T08:06:43.178Z,94971.78
2018-02-20T08:09:09.801Z,94976.13
2018-02-20T08:11:36.428Z,94968.08
2018-02-20T08:14:03.005Z,94968.19
2018-02-20T08:16:29.699Z,94969.78
2018-02-20T08:18:56.449Z,94962.16
2018-02-20T08:21:24.221Z,94972.70
2018-02-20T08:23:50.815Z,94970.03
2018-02-20T08:26:17.399Z,94957.30
2018-02-20T08:28:45.048Z,94956.34
2018-02-20T08:31:11.643Z,94959.05
2018-02-20T08:33:38.311Z,94969.28
2018-02-20T08:36:04.995Z,94961.75
2018-02-20T08:38:31.630Z,94949.05
2018-02-20T08:40:58.245Z,94956.36
2018-02-20T08:43:24.978Z,94952.73
2018-02-20T08:45:51.692Z,94953.03
2018-02-20T08:48:18.375Z,94953.55
2018-02-20T08:50:45.136Z,94954.66
2018-02-20T08:53:11.752Z,94948.16
2018-02-20T08:55:38.324Z,94943.59
2018-02-20T08:58:05.101Z,94947.08
2018-02-20T09:00:31.679Z,94951.48
2018-02-20T09:02:58.280Z,94951.82
2018-02-20T09:05:26.182Z,94936.64
2018-02-20T09:07:51.591Z,94944.14
2018-02-20T09:10:18.225Z,94942.52
2018-02-20T09:12:50.300Z,94932.81
2018-02-20T09:15:15.746Z,94944.12
2018-02-20T09:17:42.401Z,94946.04
2018-02-20T09:20:09.157Z,94942.77
2018-02-20T09:22:35.839Z,94936.27
2018-02-20T09:25:02.421Z,94941.92
2018-02-20T09:27:29.089Z,94938.59
2018-02-20T09:29:55.676Z,94939.26
2018-02-20T09:32:22.328Z,94945.00
2018-02-20T09:34:49.055Z,94939.61
2018-02-20T09:37:15.704Z,94940.67
2018-02-20T09:39:42.427Z,94933.02
2018-02-20T09:42:09.062Z,94927.47
2018-02-20T09:44:35.751Z,94924.70
2018-02-20T09:47:02.457Z,94929.79
2018-02-20T09:49:29.154Z,94915.88
2018-02-20T09:51:55.851Z,94925.76
2018-02-20T09:54:22.471Z,94918.81
2018-02-20T09:56:49.025Z,94915.82
2018-02-20T09:59:15.699Z,94920.47
2018-02-20T10:01:42.341Z,94918.41
2018-02-20T10:04:09.013Z,94911.92
2018-02-20T10:06:35.577Z,94907.21
2018-02-20T10:09:02.206Z,94903.87
2018-02-20T10:11:28.772Z,94892.16
2018-02-20T10:13:55.691Z,94894.55
2018-02-20T10:16:22.342Z,94906.72
2018-02-20T10:18:48.994Z,94891.75
2018-02-20T10:21:15.596Z,94891.84
2018-02-20T10:23:42.230Z,94880.20
2018-02-20T10:26:08.956Z,94852.70
2018-02-20T10:28:35.660Z,94885.34
2018-02-20T10:31:02.262Z,94847.23
2018-02-20T10:33:28.872Z,94866.64
2018-02-20T10:35:55.521Z,94838.88
2018-02-20T10:38:22.162Z,94866.20
2018-02-20T10:40:48.818Z,94844.75
2018-02-20T10:43:15.458Z,94817.08
2018-02-20T10:45:42.210Z,94819.40
2018-02-20T10:48:08.697Z,94816.44
2018-02-20T10:50:35.457Z,94812.77
2018-02-20T10:53:02.036Z,94851.86
2018-02-20T10:55:28.627Z,94806.27
2018-02-20T10:57:55.305Z,94836.95
2018-02-20T11:00:22.225Z,94796.26
2018-02-20T11:02:48.866Z,94798.80
2018-02-20T11:05:15.444Z,94806.23
2018-02-20T11:07:42.072Z,94824.45
2018-02-20T11:10:09.044Z,94821.98
2018-02-20T11:12:35.785Z,94837.62
2018-02-20T11:15:02.438Z,94832.31
2018-02-20T11:17:29.029Z,94819.56
2018-02-20T11:19:55.661Z,94777.02
2018-02-20T11:22:22.291Z,94802.73
2018-02-20T11:24:48.874Z,94800.19
2018-02-20T11:27:15.487Z,94816.61
2018-02-20T11:29:42.096Z,94812.66
2018-02-20T11:32:08.821Z,94825.95
2018-02-20T11:34:38.574Z,94768.43
2018-02-20T11:37:05.177Z,94802.53
2018-02-20T11:39:31.809Z,94825.42
2018-02-20T11:41:58.385Z,94811.89
2018-02-20T11:44:25.034Z,94782.92
2018-02-20T11:46:51.656Z,94783.50
2018-02-20T11:49:18.265Z,94794.27
2018-02-20T11:51:44.894Z,94790.23
2018-02-20T11:54:11.647Z,94787.81
2018-02-20T11:56:38.306Z,94803.20
2018-02-20T11:59:04.900Z,94766.63
2018-02-20T12:01:31.698Z,94768.93
2018-02-20T12:03:59.135Z,94793.16
2018-02-20T12:06:25.876Z,94794.45
2018-02-20T12:08:52.817Z,94793.72
2018-02-20T12:11:19.459Z,94793.02
2018-02-20T12:13:46.046Z,94793.88
2018-02-20T12:16:12.628Z,94796.00
2018-02-20T12:18:39.196Z,94784.01
2018-02-20T12:21:05.815Z,94784.30
2018-02-20T12:23:32.474Z,94784.64
2018-02-20T12:25:59.067Z,94786.15
2018-02-20T12:28:25.791Z,94791.72
2018-02-20T12:30:52.560Z,94787.45
2018-02-20T12:33:19.181Z,94784.80
2018-02-20T12:35:45.783Z,94783.66
2018-02-20T12:38:14.403Z,94777.27
2018-02-20T12:40:41.034Z,94771.44
2018-02-20T12:43:07.610Z,94781.02
2018-02-20T12:45:34.249Z,94771.10
2018-02-20T12:48:00.857Z,94768.11
2018-02-20T12:50:27.443Z,94770.36
2018-02-20T12:52:54.157Z,94763.70
2018-02-20T12:55:20.727Z,94760.87
2018-02-20T12:57:47.343Z,94764.44
2018-02-20T13:00:13.982Z,94755.55
2018-02-20T13:02:40.728Z,94753.94
2018-02-20T13:05:07.343Z,94754.86
2018-02-20T13:07:33.985Z,94755.15
2018-02-20T13:10:00.711Z,94747.30
2018-02-20T13:12:27.296Z,94753.15
2018-02-20T13:14:53.922Z,94757.75
2018-02-20T13:17:20.547Z,94753.97
2018-02-20T13:19:47.171Z,94756.84
2018-02-20T13:22:13.765Z,94750.48
2018-02-20T13:24:40.436Z,94753.97
2018-02-20T13:27:07.115Z,94745.55
2018-02-20T13:29:33.713Z,94757.86
2018-02-20T13:32:00.338Z,94749.90
2018-02-20T13:34:26.919Z,94752.05
2018-02-20T13:36:53.556Z,94748.94
2018-02-20T13:39:20.251Z,94746.39
2018-02-20T13:41:46.887Z,94748.70
2018-02-20T13:44:13.623Z,94744.44
2018-02-20T13:46:40.312Z,94743.14
2018-02-20T13:49:06.997Z,94745.09
2018-02-20T13:51:33.593Z,94742.31
2018-02-20T13:54:00.483Z,94734.40
2018-02-20T13:56:27.161Z,94738.03
2018-02-20T13:58:53.785Z,94727.97
2018-02-20T14:01:20.365Z,94735.55
2018-02-20T14:03:47.039Z,94728.08
2018-02-20T14:06:13.670Z,94733.64
2018-02-20T14:08:40.322Z,94736.74
2018-02-20T14:11:06.944Z,94730.66
2018-02-20T14:13:33.547Z,94729.56
2018-02-20T14:16:00.181Z,94732.41
2018-02-20T14:18:26.884Z,94738.22
2018-02-20T14:20:53.489Z,94736.88
2018-02-20T14:23:20.143Z,94726.47
2018-02-20T14:25:46.868Z,94727.75
2018-02-20T14:28:13.587Z,94722.89
2018-02-20T14:30:40.282Z,94729.41
2018-02-20T14:33:06.959Z,94720.77
2018-02-20T14:35:33.470Z,94711.64
2018-02-20T14:38:00.183Z,94714.62
2018-02-20T14:40:26.768Z,94715.38
2018-02-20T14:42:53.424Z,94712.48
2018-02-20T14:45:20.025Z,94713.54
2018-02-20T14:47:46.637Z,94721.86
2018-02-20T14:50:13.253Z,94711.49
2018-02-20T14:52:39.904Z,94712.63
2018-02-20T14:56:37.816Z,94692.83
2018-02-20T14:59:04.513Z,94695.81
2018-02-20T15:01:31.159Z,94697.05
2018-02-20T15:03:57.843Z,94701.77
2018-02-20T15:06:24.455Z,94699.92
2018-02-20T15:08:51.108Z,94695.34
2018-02-20T15:11:17.732Z,94706.60
2018-02-20T15:13:44.688Z,94716.97
2018-02-20T15:16:11.304Z,94694.30
2018-02-20T15:18:38.168Z,94706.69
2018-02-20T15:21:04.784Z,94690.68
2018-02-20T15:23:31.421Z,94703.66
2018-02-20T15:25:57.983Z,94713.95
2018-02-20T15:28:24.638Z,94677.81
2018-02-20T15:30:51.324Z,94690.52
2018-02-20T15:33:17.898Z,94709.53
2018-02-20T15:35:44.475Z,94693.39
2018-02-20T15:38:11.049Z,94699.44
2018-02-20T15:40:37.939Z,94696.94
2018-02-20T15:43:05.530Z,94689.56
2018-02-20T15:45:32.123Z,94687.53
2018-02-20T15:47:58.743Z,94692.27
2018-02-20T15:50:25.323Z,94684.27
2018-02-20T15:52:51.905Z,94708.56
2018-02-20T15:55:18.531Z,94707.41
2018-02-20T15:57:45.235Z,94704.02
2018-02-20T16:00:12.048Z,94699.13
2018-02-20T16:02:38.642Z,94704.27
2018-02-20T16:05:05.248Z,94713.19
2018-02-20T16:07:31.829Z,94704.60
2018-02-20T16:09:58.403Z,94701.21
2018-02-20T16:12:25.032Z,94705.77
2018-02-20T16:14:51.846Z,94685.79
2018-02-20T16:17:18.422Z,94693.45
2018-02-20T16:19:45.014Z,94717.41
2018-02-20T16:22:11.599Z,94717.59
2018-02-20T16:24:38.171Z,94707.97
2018-02-20T16:27:04.733Z,94695.35
2018-02-20T16:29:31.483Z,94701.92
2018-02-20T16:31:58.038Z,94699.63
2018-02-20T16:34:24.629Z,94712.22
2018-02-20T16:36:51.305Z,94663.06
2018-02-20T16:39:17.873Z,94703.55
2018-02-20T16:41:44.608Z,94682.39
2018-02-20T16:44:11.230Z,94697.34
2018-02-20T16:46:37.877Z,94687.87
2018-02-20T16:49:04.437Z,94710.22
2018-02-20T16:51:31.004Z,94701.40
2018-02-20T16:53:57.645Z,94699.70
2018-02-20T16:56:24.259Z,94715.52
2018-02-20T16:58:50.832Z,94700.36
2018-02-20T17:01:17.469Z,94701.66
2018-02-20T17:03:44.052Z,94709.67
2018-02-20T17:06:10.727Z,94700.75
2018-02-20T17:08:37.337Z,94695.89
2018-02-20T17:11:03.915Z,94708.67
2018-02-20T17:13:30.474Z,94697.84
2018-02-20T17:15:57.104Z,94672.61
2018-02-20T17:18:23.715Z,94705.48
2018-02-20T17:20:50.343Z,94704.13
2018-02-20T17:23:16.894Z,94705.74
2018-02-20T17:25:43.568Z,94706.65
2018-02-20T17:28:10.189Z,94702.33
2018-02-20T17:30:36.799Z,94711.57
2018-02-20T17:33:03.354Z,94690.50
2018-02-20T17:35:29.929Z,94716.70
2018-02-20T17:38:00.701Z,94705.38
2018-02-20T17:40:23.129Z,94704.77
2018-02-20T17:42:49.770Z,94704.22
2018-02-20T17:45:16.333Z,94704.03
2018-02-20T17:47:42.909Z,94657.80
2018-02-20T17:50:09.549Z,94706.54
2018-02-20T17:52:36.177Z,94713.80
2018-02-20T17:55:02.742Z,94710.20
2018-02-20T17:57:29.305Z,94696.97
2018-02-20T17:59:55.908Z,94694.97
2018-02-20T18:02:22.510Z,94690.84
2018-02-20T18:04:49.081Z,94708.28
2018-02-20T18:07:15.638Z,94704.14
2018-02-20T18:12:40.761Z,94703.31
2018-02-20T18:15:07.339Z,94698.74
2018-02-20T18:17:33.905Z,94705.20
2018-02-20T18:20:00.481Z,94710.17
2018-02-20T18:22:27.052Z,94702.27
2018-02-20T18:24:53.630Z,94711.62
2018-02-20T18:27:20.237Z,94714.99
2018-02-20T18:29:46.806Z,94709.37
2018-02-20T18:32:13.427Z,94711.11
2018-02-20T18:34:39.999Z,94712.05
2018-02-20T18:37:06.627Z,94717.42
2018-02-20T18:39:33.201Z,94711.55
2018-02-20T18:41:59.901Z,94712.81
2018-02-20T18:44:26.400Z,94715.28
2018-02-20T18:46:52.998Z,94715.94
2018-02-20T18:49:19.699Z,94716.48
2018-02-20T18:51:46.284Z,94714.62
2018-02-20T18:54:12.893Z,94713.50
2018-02-20T18:56:39.468Z,94708.97
2018-02-20T18:59:06.102Z,94706.97
2018-02-20T19:01:32.668Z,94708.17
2018-02-20T19:03:59.354Z,94708.25
2018-02-20T19:06:25.943Z,94709.33
2018-02-20T19:08:52.538Z,94698.59
2018-02-20T19:11:19.151Z,94705.34
2018-02-20T19:13:45.749Z,94702.63
2018-02-20T19:16:12.408Z,94702.38
2018-02-20T19:18:38.999Z,94705.89
2018-02-20T19:21:05.574Z,94705.05
2018-02-20T19:23:32.134Z,94696.64
2018-02-20T19:25:58.745Z,94701.17
2018-02-20T19:28:25.350Z,94702.16
2018-02-20T19:30:51.916Z,94701.36
2018-02-20T19:33:18.514Z,94698.52
2018-02-20T19:35:45.068Z,94692.36
2018-02-20T19:38:11.688Z,94696.24
2018-02-20T19:40:38.352Z,94704.58
2018-02-20T19:43:04.943Z,94696.53
2018-02-20T19:45:31.684Z,94704.98
2018-02-20T19:47:58.263Z,94701.36
2018-02-20T19:50:24.878Z,94704.98
2018-02-20T19:52:51.440Z,94703.53
2018-02-20T19:55:18.058Z,94701.94
2018-02-20T19:57:44.652Z,94698.05
2018-02-20T20:00:11.316Z,94698.20
2018-02-20T20:02:37.951Z,94686.09
2018-02-20T20:05:04.565Z,94694.13
2018-02-20T20:07:31.126Z,94693.24
2018-02-20T20:09:57.761Z,94687.06
2018-02-20T20:12:24.326Z,94684.75
2018-02-20T20:14:50.884Z,94679.69
2018-02-20T20:17:17.494Z,94685.84
2018-02-20T20:19:44.062Z,94676.43
2018-02-20T20:22:10.692Z,94660.80
2018-02-20T20:24:37.339Z,94663.49
2018-02-20T20:27:03.888Z,94659.72
2018-02-20T20:29:30.445Z,94655.95
2018-02-20T20:31:57.085Z,94659.95
2018-02-20T20:34:23.656Z,94654.18
2018-02-20T20:36:50.271Z,94655.63
2018-02-20T20:39:16.883Z,94653.89
2018-02-20T20:41:43.525Z,94657.23
2018-02-20T20:44:10.130Z,94659.37
2018-02-20T20:46:36.804Z,94659.25
2018-02-20T20:49:03.338Z,94654.58
2018-02-20T20:51:29.909Z,94655.48
2018-02-20T20:53:56.515Z,94657.08
2018-02-20T20:56:23.143Z,94656.69
2018-02-20T20:58:49.802Z,94655.88
2018-02-20T21:01:16.369Z,94656.03
2018-02-20T21:03:42.990Z,94654.00
2018-02-20T21:06:09.688Z,94651.75
2018-02-20T21:08:36.354Z,94654.83
2018-02-20T21:11:02.914Z,94652.52
2018-02-20T21:13:29.505Z,94655.45
2018-02-20T21:15:56.082Z,94660.27
2018-02-20T21:18:22.663Z,94658.13
2018-02-20T21:20:49.225Z,94655.05
2018-02-20T21:23:15.794Z,94653.45
2018-02-20T21:25:42.362Z,94656.28
2018-02-20T21:28:09.008Z,94659.11
2018-02-20T21:30:35.588Z,94661.36
2018-02-20T21:33:02.212Z,94657.33
2018-02-20T21:35:28.797Z,94661.54
2018-02-20T21:37:55.390Z,94660.81
2018-02-20T21:40:22.011Z,94665.96
2018-02-20T21:42:48.597Z,94663.54
2018-02-20T21:45:15.138Z,94663.82
2018-02-20T21:47:41.748Z,94664.91
2018-02-20T21:50:08.315Z,94668.14
2018-02-20T21:52:34.923Z,94664.11
2018-02-20T21:55:01.476Z,94663.20
2018-02-20T21:57:28.041Z,94667.91
2018-02-20T21:59:54.647Z,94663.67
2018-02-20T22:02:21.221Z,94662.33
2018-02-20T22:04:47.938Z,94666.13
2018-02-20T22:07:14.510Z,94663.45
2018-02-20T22:09:41.083Z,94665.08
2018-02-20T22:12:07.674Z,94667.36
2018-02-20T22:14:34.311Z,94674.06
2018-02-20T22:17:00.910Z,94670.08
2018-02-20T22:19:27.430Z,94667.54
2018-02-20T22:21:54.014Z,94664.75
2018-02-20T22:24:20.613Z,94667.27
2018-02-20T22:26:47.289Z,94667.59
2018-02-20T22:29:13.924Z,94664.13
2018-02-20T22:31:40.486Z,94658.69
2018-02-20T22:34:07.086Z,94653.13
2018-02-20T22:36:33.766Z,94659.63
2018-02-20T22:39:00.366Z,94663.69
2018-02-20T22:41:26.928Z,94657.53
2018-02-20T22:43:53.598Z,94652.93
2018-02-20T22:46:20.325Z,94658.95
2018-02-20T22:48:46.886Z,94653.05
2018-02-20T22:51:13.454Z,94655.44
2018-02-20T22:53:40.032Z,94665.67
2018-02-20T22:56:06.597Z,94662.11
2018-02-20T22:58:33.159Z,94660.45
2018-02-20T23:00:59.723Z,94666.07
2018-02-20T23:03:26.283Z,94667.41
2018-02-20T23:05:52.894Z,94667.27
2018-02-20T23:08:19.457Z,94663.22
2018-02-20T23:10:46.089Z,94657.59
2018-02-20T23:13:12.651Z,94658.39
2018-02-20T23:15:39.274Z,94658.54
2018-02-20T23:18:05.835Z,94664.38
2018-02-20T23:20:32.441Z,94665.86
2018-02-20T23:22:59.060Z,94664.09
2018-02-20T23:25:25.741Z,94663.19
2018-02-20T23:27:52.338Z,94666.55
2018-02-20T23:30:18.965Z,94659.42
2018-02-20T23:32:45.756Z,94655.65
2018-02-20T23:35:12.321Z,94659.38
2018-02-20T23:37:38.893Z,94657.76
2018-02-20T23:40:05.462Z,94655.11
2018-02-20T23:42:32.038Z,94657.76
2018-02-20T23:44:58.673Z,94657.24
2018-02-20T23:47:25.329Z,94649.63
2018-02-20T23:49:51.822Z,94651.84
2018-02-20T23:52:18.394Z,94648.91
2018-02-20T23:54:44.967Z,94656.30
2018-02-20T23:57:11.529Z,94651.52
2018-02-20T23:59:38.125Z,94657.21
